Time;durP1;ratioP1;P1;durP2;ratioP2;P2;SDS_P1;SDS_P2;PMS_P1;PMS_P2;Temp;Humidity;BMP_temperature;BMP_pressure;BME280_temperature;BME280_humidity;BME280_pressure;Samples;Min_cycle;Max_cycle;Signal;HPM_P1;HPM_P2
2023/09/28 00:02:22;;;;;;;22.52;16.98;;;12.50;99.90;;;;;;4998943;28;20065;-84
2023/09/28 00:04:49;;;;;;;26.70;17.60;;;12.40;99.90;;;;;;4998358;28;20033;-84
2023/09/28 00:07:14;;;;;;;27.63;17.20;;;12.50;99.90;;;;;;5021475;28;20025;-84
2023/09/28 00:09:40;;;;;;;25.27;16.95;;;12.40;99.90;;;;;;5016925;28;20548;-84
2023/09/28 00:12:35;;;;;;;25.27;14.70;;;12.30;99.90;;;;;;5007993;28;20033;-84
2023/09/28 00:15:01;;;;;;;25.70;17.13;;;12.30;99.90;;;;;;5016761;28;20485;-84
2023/09/28 00:17:26;;;;;;;29.02;19.38;;;12.30;99.90;;;;;;5017213;28;20029;-84
2023/09/28 00:19:52;;;;;;;23.58;16.23;;;12.20;99.90;;;;;;4991112;28;20381;-84
2023/09/28 00:22:18;;;;;;;31.27;18.83;;;12.20;99.90;;;;;;4993795;28;20431;-84
2023/09/28 00:24:43;;;;;;;25.08;18.10;;;12.00;99.90;;;;;;5009049;28;20033;-84
2023/09/28 00:27:09;;;;;;;24.63;17.73;;;12.00;99.90;;;;;;5005168;28;20038;-83
2023/09/28 00:29:35;;;;;;;24.67;18.90;;;12.00;99.90;;;;;;5006554;28;20033;-84
2023/09/28 00:32:01;;;;;;;28.15;17.33;;;11.90;99.90;;;;;;4996398;28;20030;-84
2023/09/28 00:34:27;;;;;;;27.08;18.98;;;11.90;99.90;;;;;;5028973;28;20030;-84
2023/09/28 00:36:52;;;;;;;27.73;20.35;;;11.80;99.90;;;;;;5011268;28;20036;-84
2023/09/28 00:39:18;;;;;;;27.65;19.67;;;11.80;99.90;;;;;;5004171;28;20426;-84
2023/09/28 00:41:45;;;;;;;30.40;21.05;;;11.80;99.90;;;;;;5013824;28;20033;-84
2023/09/28 00:44:11;;;;;;;37.22;21.88;;;11.80;99.90;;;;;;5022387;28;20788;-84
2023/09/28 00:46:37;;;;;;;32.17;23.25;;;11.80;99.90;;;;;;5004873;28;20021;-83
2023/09/28 00:49:05;;;;;;;34.30;23.05;;;11.80;99.90;;;;;;4997311;28;20053;-83
2023/09/28 00:51:33;;;;;;;35.88;24.88;;;11.80;99.90;;;;;;4990896;28;20115;-84
2023/09/28 00:54:03;;;;;;;36.25;22.02;;;11.80;99.90;;;;;;5015827;28;20080;-84
2023/09/28 00:56:31;;;;;;;29.92;20.55;;;11.80;99.90;;;;;;5000553;28;20038;-83
2023/09/28 00:58:59;;;;;;;32.15;22.27;;;11.80;99.90;;;;;;5011525;28;20045;-83
2023/09/28 01:01:28;;;;;;;34.30;23.67;;;11.80;99.90;;;;;;5002714;28;20029;-84
2023/09/28 01:03:56;;;;;;;36.85;23.85;;;12.00;99.90;;;;;;5004273;28;20440;-84
2023/09/28 01:06:24;;;;;;;37.00;24.40;;;12.10;99.90;;;;;;5003820;28;20037;-84
2023/09/28 01:08:52;;;;;;;37.85;25.50;;;12.20;99.90;;;;;;5003307;28;20032;-84
2023/09/28 01:11:20;;;;;;;41.80;24.88;;;12.30;99.90;;;;;;4990242;28;20030;-84
2023/09/28 01:13:46;;;;;;;35.83;23.20;;;12.30;99.90;;;;;;5012747;28;20737;-84
2023/09/28 01:16:13;;;;;;;28.42;20.02;;;12.30;99.90;;;;;;5002014;28;20025;-84
2023/09/28 01:18:40;;;;;;;25.52;18.92;;;12.20;99.90;;;;;;5014332;28;20473;-84
2023/09/28 01:21:06;;;;;;;26.15;18.90;;;12.10;99.90;;;;;;4986699;28;20041;-84
2023/09/28 01:23:32;;;;;;;30.77;19.17;;;12.10;99.90;;;;;;5003235;28;20029;-84
2023/09/28 01:26:23;;;;;;;27.20;19.25;;;12.00;99.90;;;;;;5012346;28;20045;-84
2023/09/28 01:28:49;;;;;;;28.92;18.98;;;12.00;99.90;;;;;;5003459;28;20022;-84
2023/09/28 01:31:14;;;;;;;28.75;20.02;;;11.90;99.90;;;;;;4999448;28;20425;-84
2023/09/28 01:33:42;;;;;;;32.50;19.83;;;11.80;99.90;;;;;;5014912;28;20048;-84
2023/09/28 01:36:08;;;;;;;26.42;19.92;;;11.80;99.90;;;;;;5025702;28;20516;-84
2023/09/28 01:38:41;;;;;;;29.35;20.17;;;11.90;99.90;;;;;;5000315;28;20026;-84
2023/09/28 01:41:07;;;;;;;34.92;22.50;;;11.90;99.90;;;;;;5002193;28;20439;-84
2023/09/28 01:43:39;;;;;;;27.55;19.63;;;11.90;99.90;;;;;;5001864;28;20120;-84
2023/09/28 01:46:04;;;;;;;30.45;20.00;;;12.00;99.90;;;;;;5001153;28;20069;-84
2023/09/28 01:48:30;;;;;;;34.92;21.13;;;11.90;99.90;;;;;;4999051;28;20021;-84
2023/09/28 01:50:56;;;;;;;30.17;19.85;;;11.90;99.90;;;;;;5013591;28;20018;-84
2023/09/28 01:53:22;;;;;;;36.97;20.92;;;11.90;99.90;;;;;;4998910;28;20025;-84
2023/09/28 01:55:48;;;;;;;29.55;20.02;;;12.00;99.90;;;;;;5028471;28;20133;-85
2023/09/28 01:58:13;;;;;;;32.75;22.40;;;12.00;99.90;;;;;;5013123;28;20034;-84
2023/09/28 02:00:44;;;;;;;29.63;20.38;;;12.00;99.90;;;;;;5002338;28;20047;-84
2023/09/28 02:03:10;;;;;;;33.15;21.30;;;12.00;99.90;;;;;;5019115;28;20593;-84
2023/09/28 02:05:35;;;;;;;33.75;21.55;;;12.10;99.90;;;;;;5009991;28;20022;-84
2023/09/28 02:08:07;;;;;;;32.53;22.90;;;12.10;99.90;;;;;;4994916;28;20041;-84
2023/09/28 02:10:33;;;;;;;37.30;24.05;;;12.00;99.90;;;;;;5003540;28;20036;-84
2023/09/28 02:12:59;;;;;;;32.50;20.77;;;12.00;99.90;;;;;;4994694;28;20034;-84
2023/09/28 02:15:25;;;;;;;35.15;24.05;;;12.00;99.90;;;;;;4997268;28;20037;-84
2023/09/28 02:17:51;;;;;;;39.45;24.58;;;12.00;99.90;;;;;;5015040;28;20026;-84
2023/09/28 02:20:22;;;;;;;38.15;26.20;;;12.00;99.90;;;;;;5006930;28;20112;-84
2023/09/28 02:22:52;;;;;;;40.30;26.52;;;12.20;99.90;;;;;;4996500;28;20038;-84
2023/09/28 02:25:20;;;;;;;41.90;28.63;;;12.20;99.90;;;;;;5002814;28;20388;-84
2023/09/28 02:27:46;;;;;;;37.22;24.70;;;12.30;99.90;;;;;;5003305;28;20026;-84
2023/09/28 02:30:20;;;;;;;33.65;23.90;;;12.30;99.90;;;;;;5004986;28;20022;-84
2023/09/28 02:32:47;;;;;;;43.22;25.85;;;12.30;99.90;;;;;;5017246;28;20026;-84
2023/09/28 02:35:37;;;;;;;46.80;26.27;;;12.40;99.90;;;;;;4998129;28;20687;-84
2023/09/28 02:38:03;;;;;;;35.97;23.05;;;12.40;99.90;;;;;;5013987;28;20031;-84
2023/09/28 02:40:29;;;;;;;31.90;22.80;;;12.40;99.90;;;;;;5013697;28;20018;-84
2023/09/28 02:42:55;;;;;;;35.85;24.45;;;12.30;99.90;;;;;;5029065;28;20030;-84
2023/09/28 02:45:21;;;;;;;34.63;24.05;;;12.30;99.90;;;;;;5001203;28;20026;-84
2023/09/28 02:47:48;;;;;;;36.42;23.65;;;12.30;99.90;;;;;;4999258;28;20322;-84
2023/09/28 02:50:16;;;;;;;42.00;23.45;;;12.30;99.90;;;;;;5001906;28;20030;-84
2023/09/28 02:52:46;;;;;;;37.72;24.30;;;12.30;99.90;;;;;;5029843;28;20036;-84
2023/09/28 02:55:13;;;;;;;31.77;22.10;;;12.20;99.90;;;;;;4990710;28;20789;-84
2023/09/28 02:57:40;;;;;;;32.33;23.17;;;12.20;99.90;;;;;;5028581;28;20034;-84
2023/09/28 03:00:14;;;;;;;35.88;23.38;;;12.20;99.90;;;;;;5000691;28;20933;-84
2023/09/28 03:02:40;;;;;;;41.00;27.92;;;12.20;99.90;;;;;;5005855;28;20040;-84
2023/09/28 03:05:07;;;;;;;39.28;26.95;;;12.20;99.90;;;;;;4991098;28;20520;-84
2023/09/28 03:07:35;;;;;;;47.55;30.02;;;12.20;99.90;;;;;;4994741;28;20061;-84
2023/09/28 03:10:04;;;;;;;46.97;31.30;;;12.20;99.90;;;;;;5007962;28;20033;-84
2023/09/28 03:12:31;;;;;;;52.35;33.00;;;12.30;99.90;;;;;;5018304;28;20025;-84
2023/09/28 03:14:57;;;;;;;45.15;29.63;;;12.40;99.90;;;;;;5010174;28;20096;-84
2023/09/28 03:17:23;;;;;;;49.20;31.05;;;12.50;99.90;;;;;;5007628;28;20080;-84
2023/09/28 03:19:49;;;;;;;51.80;31.02;;;12.60;99.90;;;;;;5005047;28;20026;-84
2023/09/28 03:22:15;;;;;;;41.72;29.00;;;12.70;99.90;;;;;;5001662;28;20545;-84
2023/09/28 03:24:41;;;;;;;42.47;27.25;;;12.70;99.90;;;;;;5006637;28;20842;-84
2023/09/28 03:27:08;;;;;;;37.47;26.13;;;12.80;99.90;;;;;;4987654;28;20026;-84
2023/09/28 03:29:59;;;;;;;36.75;26.65;;;12.90;99.90;;;;;;5007613;28;20025;-84
2023/09/28 03:32:24;;;;;;;38.40;25.27;;;12.90;99.90;;;;;;5018094;28;20026;-84
2023/09/28 03:34:50;;;;;;;31.50;22.90;;;12.90;99.90;;;;;;5002948;28;20469;-84
2023/09/28 03:37:18;;;;;;;30.90;19.75;;;13.10;99.90;;;;;;5014086;28;20496;-84
2023/09/28 03:40:12;;;;;;;20.45;16.10;;;13.30;99.90;;;;;;5029296;28;20025;-84
2023/09/28 03:42:43;;;;;;;23.17;14.40;;;13.70;99.90;;;;;;4986127;28;20041;-84
2023/09/28 03:45:21;;;;;;;17.73;12.15;;;13.90;99.90;;;;;;5014317;28;20072;-84
2023/09/28 03:47:53;;;;;;;16.65;10.77;;;14.10;99.90;;;;;;5019580;28;20785;-84
2023/09/28 03:50:24;;;;;;;19.92;12.27;;;14.10;99.90;;;;;;5000608;28;20546;-84
2023/09/28 03:52:51;;;;;;;15.50;10.27;;;14.20;99.90;;;;;;5023394;28;20024;-84
2023/09/28 03:55:18;;;;;;;20.25;9.38;;;14.30;99.90;;;;;;4998013;28;20437;-84
2023/09/28 03:57:44;;;;;;;15.98;9.77;;;14.30;99.90;;;;;;5033219;28;20140;-84
2023/09/28 04:00:13;;;;;;;16.40;8.25;;;14.30;99.90;;;;;;4999542;28;20044;-84
2023/09/28 04:02:47;;;;;;;15.38;7.85;;;14.30;99.90;;;;;;5024175;28;20100;-84
2023/09/28 04:05:13;;;;;;;11.05;8.40;;;14.40;99.90;;;;;;4998530;28;20033;-84
2023/09/28 04:07:39;;;;;;;11.82;7.55;;;14.40;99.90;;;;;;5003022;28;20393;-84
2023/09/28 04:10:06;;;;;;;11.63;7.07;;;14.50;99.90;;;;;;5021092;28;20033;-84
2023/09/28 04:12:32;;;;;;;15.88;7.70;;;14.70;99.90;;;;;;5004526;28;20107;-84
2023/09/28 04:14:58;;;;;;;9.70;6.90;;;14.70;99.90;;;;;;4997092;28;20049;-84
2023/09/28 04:17:24;;;;;;;14.27;7.72;;;14.70;99.90;;;;;;5000927;28;20026;-84
2023/09/28 04:19:50;;;;;;;12.15;9.35;;;14.70;99.90;;;;;;5021631;28;20021;-83
2023/09/28 04:22:16;;;;;;;13.18;7.13;;;14.70;99.90;;;;;;4997049;28;20484;-84
2023/09/28 04:25:04;;;;;;;13.05;8.15;;;14.60;99.90;;;;;;5005987;28;20033;-84
2023/09/28 04:27:30;;;;;;;18.13;7.97;;;14.60;99.90;;;;;;4992291;28;20034;-84
2023/09/28 04:29:55;;;;;;;14.77;8.10;;;14.50;99.90;;;;;;5011120;28;20477;-84
2023/09/28 04:32:21;;;;;;;14.40;8.20;;;14.40;99.90;;;;;;5009540;28;20457;-84
2023/09/28 04:34:47;;;;;;;15.57;8.63;;;14.30;99.90;;;;;;4985859;28;20026;-84
2023/09/28 04:37:13;;;;;;;16.10;9.00;;;14.20;99.90;;;;;;4980977;28;20048;-84
2023/09/28 04:39:38;;;;;;;12.20;8.18;;;14.20;99.90;;;;;;5010875;28;20030;-84
2023/09/28 04:42:04;;;;;;;12.70;9.23;;;14.10;99.90;;;;;;4981116;28;20022;-84
2023/09/28 04:44:30;;;;;;;15.20;8.43;;;14.10;99.90;;;;;;4994331;28;20029;-84
2023/09/28 04:46:56;;;;;;;14.00;8.50;;;14.10;99.90;;;;;;4996281;28;20029;-84
2023/09/28 04:49:22;;;;;;;11.93;7.78;;;14.30;99.90;;;;;;5002569;28;20025;-84
2023/09/28 04:51:47;;;;;;;8.98;7.00;;;14.40;99.90;;;;;;5011770;28;20249;-84
2023/09/28 04:54:14;;;;;;;10.48;6.95;;;14.50;99.90;;;;;;5015237;28;20125;-84
2023/09/28 04:56:41;;;;;;;18.13;7.03;;;14.60;99.90;;;;;;5009677;28;20037;-85
2023/09/28 04:59:08;;;;;;;15.35;7.47;;;14.60;99.90;;;;;;5011332;28;20038;-84
2023/09/28 05:01:34;;;;;;;11.93;7.20;;;14.50;99.90;;;;;;5009768;28;20083;-84
2023/09/28 05:04:00;;;;;;;12.20;6.88;;;14.50;99.90;;;;;;4984269;28;20026;-85
2023/09/28 05:06:27;;;;;;;16.08;7.88;;;14.40;99.90;;;;;;5008123;28;20036;-84
2023/09/28 05:08:53;;;;;;;9.77;6.40;;;14.30;99.90;;;;;;5021342;28;20053;-84
2023/09/28 05:11:18;;;;;;;14.52;7.22;;;14.30;99.90;;;;;;4998632;28;20087;-84
2023/09/28 05:13:44;;;;;;;10.35;6.75;;;14.20;99.90;;;;;;5015577;28;20524;-84
2023/09/28 05:16:10;;;;;;;11.15;7.65;;;14.20;99.90;;;;;;5023199;28;20034;-84
2023/09/28 05:18:36;;;;;;;16.02;8.40;;;14.10;99.90;;;;;;5009871;28;20036;-84
2023/09/28 05:21:02;;;;;;;17.20;8.50;;;14.00;99.90;;;;;;4991523;28;20037;-84
2023/09/28 05:23:27;;;;;;;14.88;7.78;;;13.90;99.90;;;;;;5002884;28;20036;-84
2023/09/28 05:25:53;;;;;;;12.25;8.07;;;13.70;99.90;;;;;;4998864;28;20033;-84
2023/09/28 05:28:18;;;;;;;14.02;8.57;;;13.50;99.90;;;;;;5011603;28;20052;-84
2023/09/28 05:30:45;;;;;;;13.45;8.65;;;13.40;99.90;;;;;;4993492;28;20021;-84
2023/09/28 05:33:11;;;;;;;16.42;9.50;;;13.30;99.90;;;;;;4989757;28;20033;-84
2023/09/28 05:35:37;;;;;;;12.93;8.23;;;13.10;99.90;;;;;;5008531;28;20732;-84
2023/09/28 05:38:03;;;;;;;13.85;9.45;;;13.00;99.90;;;;;;4999324;28;20108;-84
2023/09/28 05:40:29;;;;;;;17.83;9.98;;;13.00;99.90;;;;;;4994294;28;20038;-84
2023/09/28 05:42:54;;;;;;;14.82;10.30;;;12.90;99.90;;;;;;4998316;28;20033;-84
2023/09/28 05:45:20;;;;;;;16.52;10.90;;;13.00;99.90;;;;;;5027786;28;20049;-84
2023/09/28 05:47:47;;;;;;;17.58;10.77;;;13.10;99.90;;;;;;4996047;28;20037;-85
2023/09/28 05:50:13;;;;;;;18.10;10.60;;;13.20;99.90;;;;;;5018212;28;20034;-85
2023/09/28 05:52:39;;;;;;;14.80;10.05;;;13.20;99.90;;;;;;5010475;28;20524;-84
2023/09/28 05:55:06;;;;;;;16.05;11.52;;;13.30;99.90;;;;;;5014743;28;20029;-85
2023/09/28 05:57:32;;;;;;;15.52;9.43;;;13.40;99.90;;;;;;5002239;28;20048;-84
2023/09/28 05:59:58;;;;;;;15.07;9.90;;;13.60;99.90;;;;;;4994877;28;20037;-84
2023/09/28 06:02:24;;;;;;;17.77;9.23;;;13.60;99.90;;;;;;4986052;28;20480;-83
2023/09/28 06:04:50;;;;;;;14.68;9.65;;;13.70;99.90;;;;;;4986592;28;20036;-84
2023/09/28 06:07:15;;;;;;;14.23;8.98;;;13.80;99.90;;;;;;4992961;28;20116;-84
2023/09/28 06:09:42;;;;;;;10.90;8.63;;;13.80;99.90;;;;;;4999028;28;20022;-84
2023/09/28 06:12:08;;;;;;;15.15;8.65;;;13.90;99.90;;;;;;4991610;28;20030;-84
2023/09/28 06:14:34;;;;;;;15.68;8.60;;;14.10;99.90;;;;;;5021918;28;20126;-84
2023/09/28 06:17:00;;;;;;;11.60;8.35;;;14.20;99.90;;;;;;5005983;28;20069;-85
2023/09/28 06:19:27;;;;;;;11.65;7.68;;;14.30;99.90;;;;;;5001679;28;20030;-84
2023/09/28 06:21:54;;;;;;;10.68;7.70;;;14.30;99.90;;;;;;4992759;28;20021;-85
2023/09/28 06:24:20;;;;;;;13.55;7.47;;;14.40;99.90;;;;;;5005228;28;20107;-84
2023/09/28 06:26:46;;;;;;;13.35;7.57;;;14.30;99.90;;;;;;5011120;28;20052;-84
2023/09/28 06:29:12;;;;;;;18.58;9.55;;;14.30;99.90;;;;;;4996015;28;20473;-84
2023/09/28 06:31:38;;;;;;;14.85;8.15;;;14.20;99.90;;;;;;4991613;28;20227;-84
2023/09/28 06:34:05;;;;;;;15.68;8.00;;;14.20;99.90;;;;;;5013784;28;20038;-84
2023/09/28 06:36:32;;;;;;;12.10;7.85;;;14.10;99.90;;;;;;5029692;28;20033;-84
2023/09/28 06:38:58;;;;;;;15.73;8.02;;;14.10;99.90;;;;;;5003910;28;20124;-84
2023/09/28 06:41:25;;;;;;;12.98;7.53;;;14.10;99.90;;;;;;5031000;28;20547;-84
2023/09/28 06:43:51;;;;;;;13.77;7.10;;;14.00;99.90;;;;;;5010604;28;20727;-84
2023/09/28 06:46:17;;;;;;;15.32;7.63;;;14.00;99.90;;;;;;5005059;28;20038;-84
2023/09/28 06:48:45;;;;;;;10.32;6.70;;;14.00;99.90;;;;;;4996417;28;20037;-84
2023/09/28 06:51:11;;;;;;;11.93;7.07;;;14.00;99.90;;;;;;5012819;28;20092;-84
2023/09/28 06:53:38;;;;;;;10.77;7.45;;;13.90;99.90;;;;;;5027180;28;21200;-83
2023/09/28 06:56:05;;;;;;;11.10;7.78;;;13.90;99.90;;;;;;5000090;28;20076;-84
2023/09/28 06:58:30;;;;;;;13.75;7.85;;;13.90;99.90;;;;;;5008986;28;20474;-84
2023/09/28 07:00:58;;;;;;;14.02;7.95;;;14.00;99.90;;;;;;5031907;28;20064;-84
2023/09/28 07:03:25;;;;;;;15.70;8.20;;;14.20;99.90;;;;;;4998113;28;20497;-84
2023/09/28 07:05:52;;;;;;;15.90;7.78;;;14.40;99.90;;;;;;5013255;28;20482;-84
2023/09/28 07:08:17;;;;;;;11.43;7.45;;;14.60;99.90;;;;;;5024392;28;20030;-84
2023/09/28 07:10:44;;;;;;;10.35;6.45;;;14.70;99.90;;;;;;5005247;28;20021;-84
2023/09/28 07:13:11;;;;;;;11.57;6.53;;;14.80;99.90;;;;;;4993019;28;20049;-84
2023/09/28 07:15:37;;;;;;;11.95;6.25;;;14.90;99.90;;;;;;5010379;28;20075;-84
2023/09/28 07:18:03;;;;;;;10.82;6.20;;;15.00;99.90;;;;;;5021254;28;20053;-85
2023/09/28 07:20:30;;;;;;;12.02;6.60;;;15.10;99.90;;;;;;5004437;28;20037;-84
2023/09/28 07:22:56;;;;;;;8.65;6.18;;;15.20;99.90;;;;;;5009157;28;20433;-85
2023/09/28 07:25:23;;;;;;;10.02;6.10;;;15.20;99.90;;;;;;5010898;28;20033;-84
2023/09/28 07:27:52;;;;;;;8.52;6.70;;;15.30;99.90;;;;;;5011745;28;20041;-84
2023/09/28 07:30:19;;;;;;;13.60;6.57;;;15.50;99.90;;;;;;5009197;28;20428;-84
2023/09/28 07:32:49;;;;;;;13.63;5.55;;;15.60;99.90;;;;;;4986916;28;20033;-84
2023/09/28 07:35:19;;;;;;;14.32;5.90;;;15.70;99.90;;;;;;5006800;28;20034;-84
2023/09/28 07:37:45;;;;;;;16.52;6.80;;;15.80;99.90;;;;;;5009441;28;20081;-84
2023/09/28 07:40:17;;;;;;;10.30;6.40;;;15.80;99.90;;;;;;4996719;28;20026;-84
2023/09/28 07:42:43;;;;;;;;;;;15.90;99.90;;;;;;5001917;28;20029;-84
2023/09/28 07:45:11;;;;;;;11.50;5.95;;;15.90;99.90;;;;;;5013710;28;19941;-84
2023/09/28 07:47:38;;;;;;;11.23;6.00;;;15.90;99.90;;;;;;5013598;28;20045;-84
2023/09/28 07:50:10;;;;;;;12.00;6.47;;;16.10;99.90;;;;;;5029451;28;20040;-84
2023/09/28 07:52:37;;;;;;;14.10;5.90;;;16.10;99.90;;;;;;5022233;28;20508;-84
2023/09/28 07:55:04;;;;;;;12.35;6.25;;;16.30;99.90;;;;;;5003480;28;20477;-84
2023/09/28 07:57:30;;;;;;;10.05;6.47;;;16.30;99.90;;;;;;5006934;28;20468;-85
2023/09/28 07:59:56;;;;;;;9.68;5.50;;;16.40;99.90;;;;;;5023061;28;20175;-84
2023/09/28 08:02:22;;;;;;;15.88;5.90;;;16.50;99.90;;;;;;5003667;28;20030;-84
2023/09/28 08:04:48;;;;;;;9.40;5.10;;;16.70;99.90;;;;;;5008184;28;20032;-84
2023/09/28 08:07:15;;;;;;;9.40;5.78;;;16.70;99.90;;;;;;5004981;28;20375;-84
2023/09/28 08:09:42;;;;;;;12.00;5.68;;;16.80;99.90;;;;;;5014058;28;20839;-84
2023/09/28 08:12:08;;;;;;;9.25;5.20;;;16.90;99.90;;;;;;5022992;28;20059;-85
2023/09/28 08:14:34;;;;;;;16.30;6.38;;;17.00;99.90;;;;;;4995741;28;20056;-84
2023/09/28 08:17:00;;;;;;;10.10;6.20;;;17.10;99.90;;;;;;5001376;28;20068;-84
2023/09/28 08:19:29;;;;;;;8.30;5.80;;;17.20;99.90;;;;;;4998393;28;20522;-84
2023/09/28 08:21:55;;;;;;;11.82;5.53;;;17.30;99.90;;;;;;5004133;28;20017;-84
2023/09/28 08:24:20;;;;;;;10.27;5.60;;;17.30;99.90;;;;;;5017606;28;20104;-84
2023/09/28 08:26:47;;;;;;;11.00;6.03;;;17.30;99.90;;;;;;4998080;28;20064;-84
2023/09/28 08:29:12;;;;;;;11.93;5.00;;;17.40;99.90;;;;;;5016189;28;20026;-84
2023/09/28 08:31:39;;;;;;;12.15;5.90;;;17.40;99.90;;;;;;5011104;28;20029;-85
2023/09/28 08:34:05;;;;;;;10.20;5.90;;;17.40;99.90;;;;;;5026031;28;20045;-85
2023/09/28 08:36:32;;;;;;;9.63;6.03;;;17.50;99.90;;;;;;5013843;28;20152;-85
2023/09/28 08:38:58;;;;;;;10.80;5.53;;;17.50;99.90;;;;;;5009809;28;20504;-84
2023/09/28 08:41:36;;;;;;;7.30;5.20;;;17.70;99.90;;;;;;4998112;28;20033;-84
2023/09/28 08:44:06;;;;;;;18.80;6.38;;;18.40;99.90;;;;;;5016029;28;20064;-85
2023/09/28 08:46:38;;;;;;;11.18;4.82;;;19.50;99.90;;;;;;4997610;28;20033;-84
2023/09/28 08:49:06;;;;;;;9.43;5.50;;;20.80;99.90;;;;;;4998722;28;20026;-85
2023/09/28 08:51:33;;;;;;;8.65;6.15;;;22.00;99.90;;;;;;4997952;28;20037;-84
2023/09/28 08:54:02;;;;;;;7.88;4.75;;;22.70;99.90;;;;;;5027162;28;20493;-85
2023/09/28 08:56:30;;;;;;;10.75;5.03;;;22.80;99.90;;;;;;4983595;28;20123;-85
2023/09/28 08:58:58;;;;;;;9.25;4.85;;;22.50;99.90;;;;;;5012427;28;20040;-85
2023/09/28 09:01:26;;;;;;;9.85;5.28;;;22.40;99.90;;;;;;5012926;28;20364;-85
2023/09/28 09:03:51;;;;;;;7.07;5.05;;;21.70;99.90;;;;;;5012367;28;20084;-84
2023/09/28 09:06:18;;;;;;;9.35;5.57;;;21.10;99.90;;;;;;4997832;28;20045;-85
2023/09/28 09:08:48;;;;;;;13.20;6.38;;;20.70;99.90;;;;;;4996483;28;20026;-85
2023/09/28 09:11:16;;;;;;;8.65;4.57;;;20.50;99.90;;;;;;5026550;28;20079;-85
2023/09/28 09:13:54;;;;;;;10.68;5.50;;;20.30;99.90;;;;;;4997887;28;20033;-85
2023/09/28 09:16:22;;;;;;;9.18;4.78;;;20.20;99.90;;;;;;5014708;28;20033;-85
2023/09/28 09:18:48;;;;;;;7.28;5.15;;;20.50;99.90;;;;;;5005744;28;20034;-85
2023/09/28 09:21:14;;;;;;;9.05;4.78;;;21.20;99.90;;;;;;5021658;28;20037;-85
2023/09/28 09:23:40;;;;;;;8.63;5.05;;;21.70;99.90;;;;;;5007822;28;20029;-85
2023/09/28 09:26:18;;;;;;;6.93;4.80;;;21.90;99.90;;;;;;5014794;28;20037;-85
2023/09/28 09:28:46;;;;;;;6.38;4.70;;;22.70;99.90;;;;;;5010061;28;20068;-85
2023/09/28 09:31:13;;;;;;;8.50;4.70;;;23.60;99.90;;;;;;4995064;28;20022;-85
2023/09/28 09:33:39;;;;;;;6.82;4.53;;;24.20;99.90;;;;;;4998036;28;20033;-85
2023/09/28 09:36:05;;;;;;;8.85;4.65;;;24.80;99.90;;;;;;4994526;28;20100;-85
2023/09/28 09:38:31;;;;;;;10.80;4.90;;;25.20;99.90;;;;;;4993370;28;20401;-85
2023/09/28 09:41:01;;;;;;;7.25;4.00;;;25.60;99.90;;;;;;5014327;28;20021;-85
2023/09/28 09:43:40;;;;;;;10.05;4.72;;;25.90;99.90;;;;;;5022799;28;20040;-85
2023/09/28 09:46:09;;;;;;;11.77;4.50;;;26.10;99.90;;;;;;4997086;28;20026;-85
2023/09/28 09:48:43;;;;;;;8.63;4.80;;;25.50;99.90;;;;;;5006780;28;20499;-85
2023/09/28 09:51:17;;;;;;;6.85;4.38;;;25.30;99.90;;;;;;5006491;28;20049;-84
2023/09/28 09:53:46;;;;;;;7.55;4.53;;;25.30;99.90;;;;;;5010856;28;20033;-85
2023/09/28 09:56:15;;;;;;;8.50;5.07;;;25.50;99.90;;;;;;4989739;28;20478;-85
2023/09/28 09:58:43;;;;;;;8.02;4.90;;;25.60;99.90;;;;;;5002943;28;20045;-85
2023/09/28 10:01:12;;;;;;;8.32;4.55;;;25.90;99.90;;;;;;4985014;28;20044;-86
2023/09/28 10:03:50;;;;;;;6.75;4.70;;;25.80;99.90;;;;;;5022666;28;20073;-86
2023/09/28 10:06:18;;;;;;;5.72;4.50;;;25.90;99.90;;;;;;4995100;28;20679;-86
2023/09/28 10:08:46;;;;;;;9.40;4.82;;;26.30;99.90;;;;;;5020584;28;20033;-84
2023/09/28 10:11:13;;;;;;;8.93;4.80;;;26.50;99.90;;;;;;5001248;28;20034;-84
2023/09/28 10:13:39;;;;;;;6.10;5.20;;;26.50;99.90;;;;;;5004991;28;20046;-85
2023/09/28 10:16:08;;;;;;;7.40;4.80;;;26.30;99.90;;;;;;4989319;28;20120;-85
2023/09/28 10:18:36;;;;;;;10.35;4.90;;;26.20;99.90;;;;;;5019937;28;20036;-85
2023/09/28 10:21:02;;;;;;;8.70;4.90;;;25.90;99.90;;;;;;5005088;28;20034;-85
2023/09/28 10:23:37;;;;;;;8.27;5.03;;;25.90;99.90;;;;;;4989785;28;20030;-85
2023/09/28 10:26:12;;;;;;;9.27;4.70;;;26.20;99.90;;;;;;5004136;28;20030;-85
2023/09/28 10:29:05;;;;;;;8.65;5.18;;;26.40;99.90;;;;;;5007553;28;20036;-85
2023/09/28 10:31:39;;;;;;;9.63;4.35;;;25.80;99.90;;;;;;5007243;28;20030;-85
2023/09/28 10:34:07;;;;;;;12.77;4.88;;;26.00;99.90;;;;;;5010920;28;20041;-85
2023/09/28 10:36:40;;;;;;;6.97;4.60;;;26.30;99.90;;;;;;5028435;28;20055;-85
2023/09/28 10:43:11;;;;;;;10.27;4.43;;;26.70;99.90;;;;;;5031486;28;20041;-85
2023/09/28 10:45:37;;;;;;;5.72;4.10;;;26.50;99.90;;;;;;5007954;28;20092;-85
2023/09/28 10:48:09;;;;;;;6.40;4.53;;;26.40;99.90;;;;;;4985338;28;20378;-85
2023/09/28 10:50:38;;;;;;;7.47;4.68;;;26.20;99.90;;;;;;5015654;28;20036;-85
2023/09/28 10:53:05;;;;;;;9.15;4.45;;;26.60;99.90;;;;;;5014024;28;20381;-85
2023/09/28 10:55:31;;;;;;;5.65;4.03;;;26.50;99.90;;;;;;5006219;28;20504;-85
2023/09/28 10:58:04;;;;;;;9.05;4.43;;;26.50;99.90;;;;;;5026713;28;20040;-85
2023/09/28 11:00:32;;;;;;;6.03;4.13;;;26.70;99.90;;;;;;5021272;28;20034;-85
2023/09/28 11:02:58;;;;;;;8.57;4.93;;;26.90;99.90;;;;;;4990009;28;20285;-85
2023/09/28 11:05:25;;;;;;;7.00;4.78;;;26.90;99.90;;;;;;5019184;28;20065;-85
2023/09/28 11:07:51;;;;;;;6.55;4.50;;;27.10;99.90;;;;;;5011839;28;20029;-86
2023/09/28 11:10:17;;;;;;;7.45;4.50;;;27.00;99.90;;;;;;5017513;28;20389;-86
2023/09/28 11:12:44;;;;;;;8.23;4.68;;;26.70;99.90;;;;;;5004071;28;20124;-85
2023/09/28 11:15:14;;;;;;;6.47;4.43;;;26.50;99.90;;;;;;5013795;28;20033;-85
2023/09/28 11:17:40;;;;;;;9.63;4.30;;;26.60;99.90;;;;;;5001348;28;20128;-85
2023/09/28 11:20:13;;;;;;;8.68;4.38;;;27.20;99.90;;;;;;5021281;28;20022;-85
2023/09/28 11:22:39;;;;;;;5.38;3.67;;;27.90;99.90;;;;;;4997006;28;20128;-85
2023/09/28 11:25:06;;;;;;;9.73;4.32;;;27.90;99.90;;;;;;4990234;28;20034;-85
2023/09/28 11:27:32;;;;;;;7.10;3.75;;;28.00;99.90;;;;;;5014016;28;20033;-85
2023/09/28 11:29:58;;;;;;;9.75;3.83;;;28.10;99.90;;;;;;5024882;28;20030;-85
2023/09/28 11:32:24;;;;;;;5.25;4.25;;;28.40;99.90;;;;;;5012911;28;20378;-85
2023/09/28 11:34:53;;;;;;;10.10;5.10;;;28.60;99.90;;;;;;5016218;28;20042;-85
2023/09/28 11:37:23;;;;;;;7.38;4.22;;;28.60;99.90;;;;;;4994874;28;20065;-86
2023/09/28 11:39:49;;;;;;;6.07;4.25;;;28.60;99.80;;;;;;5019103;28;20100;-85
2023/09/28 11:42:14;;;;;;;5.15;4.18;;;28.90;99.60;;;;;;5011297;28;20442;-85
2023/09/28 11:44:43;;;;;;;7.72;4.75;;;29.00;99.50;;;;;;5013750;28;20025;-85
2023/09/28 11:47:08;;;;;;;6.90;4.47;;;29.00;99.90;;;;;;5007043;28;20112;-85
2023/09/28 11:49:37;;;;;;;6.47;4.38;;;29.10;99.10;;;;;;5013085;28;20033;-85
2023/09/28 11:52:04;;;;;;;8.98;5.10;;;29.30;99.20;;;;;;5010339;28;20040;-86
2023/09/28 11:54:30;;;;;;;7.95;4.75;;;29.10;98.00;;;;;;5009756;28;20489;-85
2023/09/28 11:56:57;;;;;;;9.00;4.45;;;28.00;98.40;;;;;;4997182;28;20125;-85
2023/09/28 11:59:23;;;;;;;7.78;4.75;;;27.70;99.90;;;;;;5008912;28;20041;-85
2023/09/28 12:01:53;;;;;;;7.47;4.72;;;27.80;99.90;;;;;;5016410;28;20127;-85
2023/09/28 12:04:18;;;;;;;10.80;4.38;;;27.90;99.90;;;;;;5021996;28;20041;-85
2023/09/28 12:06:45;;;;;;;11.13;4.72;;;28.20;99.70;;;;;;5014247;28;20807;-85
2023/09/28 12:09:13;;;;;;;6.20;4.53;;;27.80;99.30;;;;;;5016805;28;20393;-85
2023/09/28 12:11:42;;;;;;;8.32;4.25;;;27.80;99.90;;;;;;5016498;28;20075;-85
2023/09/28 12:14:07;;;;;;;10.20;4.28;;;28.20;99.90;;;;;;4992322;28;20041;-85
2023/09/28 12:16:33;;;;;;;6.25;4.03;;;28.30;99.50;;;;;;5009929;28;20393;-85
2023/09/28 12:18:59;;;;;;;6.78;4.15;;;28.40;99.00;;;;;;5002036;28;20025;-85
2023/09/28 12:21:41;;;;;;;9.35;4.43;;;28.10;99.30;;;;;;5011086;28;20040;-85
2023/09/28 12:24:07;;;;;;;6.95;4.20;;;28.10;99.40;;;;;;4999461;28;20110;-85
2023/09/28 12:26:42;;;;;;;8.23;4.03;;;28.40;99.40;;;;;;4984267;28;20041;-85
2023/09/28 12:29:07;;;;;;;5.13;4.25;;;28.60;98.80;;;;;;5023898;28;20137;-85
2023/09/28 12:31:35;;;;;;;4.68;3.90;;;28.30;98.00;;;;;;5001665;28;20105;-85
2023/09/28 12:34:04;;;;;;;5.20;4.15;;;28.30;99.40;;;;;;5012949;28;20033;-85
2023/09/28 12:36:31;;;;;;;5.07;3.70;;;28.10;98.80;;;;;;5011840;28;20513;-85
2023/09/28 12:38:57;;;;;;;8.98;4.32;;;28.10;98.70;;;;;;5014902;28;20128;-85
2023/09/28 12:41:23;;;;;;;10.20;4.03;;;28.00;99.70;;;;;;4988043;28;20042;-85
2023/09/28 12:43:48;;;;;;;7.40;3.92;;;27.80;99.70;;;;;;4995105;28;20030;-85